Athena, Oregon
Current Conditions -  °F | °C
As of 5:53 PM on Thursday 20 Nov 2014 (Local Time) from KPDT Reporting Station
Moderate Fog Moderate Fog  
Wind Chill: 31°   Ceiling: 300
Heat Index: 31°   Visibility: 0.25mi
Dew Point: 30°   Wind: 0mph
Humidity: 96%   Direction: NA
Pressure: 30.01"   Gusts: NA
Location:  45.81°N, 118.49°W
Report Text: KPDT 210153Z 00000KT 1/4SM FZFG OVC003 M01/M01 A3001 RMK AO2 SLP173 T10061011
Loading
Personal Weather Stations






























Interactive Weather Map New forecast layout! Learn more

10-Day Weather Forecast

Advertisements
Track Severe Weather on mobile